Аэропорт: Мирный. Мирный

ICAO: UERR

METAR:
2024-05-18 15:00:00
UERR 181500Z VRB01MPS CAVOK M00/M10 Q1010 R25/CLRD60 NOSIG RMK QFE727/0969
TAF:
2024-05-18 14:00:00
TAF UERR 181400Z 1815/1915 VRB01MPS 9999 SCT030